x

Cape Elizabeth- 45nm Nw Of Aberdeen, Wa (46041) Wave Buoy

10:50 - Sat 21st Jan 2017 All times are PST. -8 hours from GMT.

  • Sig Wave height 18.0ft
  • Swell Direction
  • Peak Period 17s
  • Average Period 11s
  • Wind
    22mph, 31mph gusts
  • Sea Temp 50°f
  • Aire Temp 46°f
  • Sea Pressure 992.5mb
  • Cape Elizabeth- 45nm Nw Of Aberdeen, Wa
  • Cape Elizabeth- 45nm Nw Of Aberdeen, Wa

More Historic Weather Station data

Upgrade to MSW Pro to gain access to the past 30 days of data for over 8000 Wavebouys and Weather Stations around the globe.

Join Pro

Comparision Forecast

View Surf forecast
   
sáb 01/21 10:50 18ft 17s 11s 22 31 mph 992.5mb 50f 46f
9:50 18.5ft 16s 11s 22 29 mph 991.7mb 50f 46f
8:50 18ft 19s 11s 22 29 mph 990.9mb 50f 46f
7:50 17.5ft 19s 11s 22 27 mph 990mb 50f 46f
6:50 18.5ft 17s 12s 20 27 mph 989.5mb 50f 46f
5:50 20ft 17s 12s 20 27 mph 989mb 50f 46f
4:50 15.5ft 16s 11s 20 25 mph 988.5mb 50f 46f
3:50 14ft 17s 10s 20 25 mph 988.3mb 50f 46f
2:50 12ft 19s 9s 20 25 mph 988.1mb 50f 47f
1:50 11ft 14s 9s 20 27 mph 987.6mb 50f 47f
12:50 12ft 15s 9s 20 25 mph 987.2mb 50f 47f
vie 01/20 11:50 11ft 15s 9s 20 25 mph 986.9mb 50f 47f
10:50 11ft 15s 8s 22 27 mph 986.5mb 50f 47f
9:50 10ft 13s 7s 22 27 mph 986.1mb 50f 47f
8:50 11ft 15s 8s 25 29 mph 985.6mb 50f 46f
7:50 11ft 15s 8s 27 31 mph 985.2mb 50f 46f
6:50 11.5ft 15s 8s 27 34 mph 984.7mb 50f 46f
5:50 13ft 16s 8s 27 34 mph 984.2mb 49f 46f
4:50 12.5ft 15s 8s 27 31 mph 984mb 49f 46f
3:50 12.5ft 16s 8s 27 34 mph 983.7mb 50f 47f
2:50 13.5ft 16s 9s 25 31 mph 983.4mb 50f 47f
1:50 12ft 15s 8s 25 31 mph 983.1mb 50f 47f
12:50 12.5ft 15s 9s 27 34 mph 983.2mb 50f 48f
11:50 12.5ft 13s 9s 27 34 mph 983.5mb 50f 48f
10:50 13ft 15s 9s 27 34 mph 983.8mb 50f 47f
9:50 15.5ft 15s 10s 22 29 mph 983.5mb 49f 48f
8:50 15ft 16s 10s 18 25 mph 983.5mb 49f 49f
7:50 14ft 15s 10s 18 25 mph 983.8mb 49f 48f
6:50 14ft 16s 10s 20 27 mph 984.5mb 49f 48f
5:50 15.5ft 16s 10s 18 25 mph 985.4mb 49f 49f
4:50 13ft 16s 9s 22 31 mph 986.5mb 49f 48f
3:50 15ft 16s 9s 25 31 mph 987.9mb 49f 47f
2:50 15ft 16s 9s 27 34 mph 989.4mb 49f 47f
1:50 16.5ft 16s 10s 25 36 mph 990.6mb 49f 47f
12:50 14.5ft 14s 9s 25 31 mph 991.6mb 49f 47f
jue 01/19 11:50 13ft 15s 9s 25 34 mph 992.8mb 49f 46f
10:50 11ft 14s 8s 20 29 mph 993.6mb 50f 46f
9:50 13ft 13s 9s 20 25 mph 994.3mb 49f 48f
8:50 14ft 12s 9s 16 20 mph 995mb 50f 48f
7:50 14ft 13s 9s 18 22 mph 995.3mb 50f 48f
6:50 14ft 13s 9s 13 16 mph 995.9mb 49f 48f
5:50 13ft 11s 9s 11 16 mph 996.4mb 49f 48f
4:50 14.5ft 12s 9s 9 11 mph 996.5mb 49f 48f
3:50 14ft 13s 10s 9 13 mph 996.6mb 49f 47f
2:50 11ft 13s 8s 7 11 mph 996.4mb 49f 47f
1:50 12ft 13s 9s 13 16 mph 996.5mb 49f 48f
12:50 10ft 12s 8s 16 18 mph 996.9mb 49f 47f
11:50 10ft 12s 8s 16 18 mph 997.2mb 49f 49f
10:50 9.5ft 12s 8s 16 18 mph 997.3mb 49f 49f
9:50 10ft 13s 8s 13 18 mph 997mb 49f 49f
8:50 11ft 12s 8s 13 18 mph 996.3mb 49f 48f
7:50 11ft 12s 8s 13 18 mph 995.6mb 49f 48f
6:50 12ft 11s 8s 16 18 mph 995.1mb 49f 48f
5:50 11ft 12s 8s 18 20 mph 994.9mb 49f 49f
4:50 12.5ft 12s 8s 20 25 mph 994.5mb 49f 49f
3:50 13ft 12s 8s 22 27 mph 994.1mb 49f 48f
2:50 14ft 12s 8s 25 31 mph 993.9mb 49f 47f
1:50 13.5ft 12s 9s 22 29 mph 992.9mb 49f 48f
12:50 14.5ft 11s 9s 20 25 mph 992.6mb 49f 50f
mié 01/18 11:50 13ft 12s 9s 18 22 mph 992.1mb 49f 50f
10:50 12ft 11s 8s 18 22 mph 991.3mb 49f 50f
9:50 13ft 12s 9s 18 25 mph 990.3mb 49f 50f
8:50 13ft 13s 9s 16 20 mph 989.5mb 50f 50f
7:50 13ft 12s 9s 16 18 mph 988.8mb 50f 50f
6:50 15ft 12s 9s 18 27 mph 988.2mb 49f 49f
5:50 16ft 13s 9s 13 18 mph 987.9mb 50f 50f
4:50 16.5ft 13s 9s 16 18 mph 988.4mb 49f 50f
3:50 18.5ft 13s 9s 20 22 mph 989.1mb 50f 50f
2:50 18ft 13s 9s 18 22 mph 989.1mb 50f 51f
1:50 15.5ft 14s 8s 20 29 mph 990mb 50f 51f
12:50 19ft 12s 9s 25 34 mph 990.1mb 49f 52f
11:50 20ft 13s 9s 25 29 mph 989.8mb 49f 52f
10:50 19.5ft 13s 8s 31 38 mph 989.5mb 50f 52f
9:50 24.5ft 13s 9s 31 38 mph 988.8mb 50f 52f
8:50 20.5ft 13s 8s 34 40 mph 988.1mb 50f 52f
7:50 21.5ft 13s 9s 38 47 mph 986.4mb 49f 52f
6:50 18.5ft 11s 8s 31 40 mph 986.7mb 49f 51f
5:50 18.5ft 13s 9s 31 40 mph 987.5mb 47f 51f
4:50 16.5ft 12s 8s 29 34 mph 989.4mb 46f 50f
3:50 17.5ft 11s 9s 27 34 mph 990.7mb 47f 50f
2:50 21ft 12s 9s 22 29 mph 992.1mb 47f 50f
1:50 20.5ft 11s 9s 29 34 mph 993.1mb 47f 51f
12:50 17.5ft 13s 8s 29 36 mph 993.2mb 48f 51f
mar 01/17 11:50 22.5ft 12s 9s 29 38 mph 994.1mb 48f 51f
10:50 21.5ft 11s 9s 29 36 mph 993.7mb 49f 51f
9:50 21.5ft 11s 9s 31 38 mph 994.4mb 48f 51f
8:50 19.5ft 11s 8s 31 38 mph 993.8mb 49f 51f
7:50 22ft 11s 9s 34 40 mph 993.3mb 49f 51f